createdAt,value
2018-09-04T00:02:26.855Z,22.90
2018-09-04T00:04:54.986Z,22.90
2018-09-04T00:07:23.491Z,23.00
2018-09-04T00:09:52.247Z,23.00
2018-09-04T00:12:20.356Z,23.00
2018-09-04T00:14:48.671Z,23.00
2018-09-04T00:17:16.775Z,23.00
2018-09-04T00:19:44.843Z,23.00
2018-09-04T00:22:12.928Z,23.00
2018-09-04T00:24:41.030Z,23.00
2018-09-04T00:27:09.161Z,23.00
2018-09-04T00:29:37.266Z,23.10
2018-09-04T00:32:05.761Z,23.10
2018-09-04T00:34:34.023Z,23.00
2018-09-04T00:37:02.088Z,23.00
2018-09-04T00:39:30.210Z,22.80
2018-09-04T00:41:58.747Z,22.80
2018-09-04T00:44:26.913Z,22.80
2018-09-04T00:46:55.107Z,22.90
2018-09-04T00:49:23.204Z,22.90
2018-09-04T00:51:51.321Z,22.90
2018-09-04T00:54:19.555Z,23.00
2018-09-04T00:56:47.651Z,23.00
2018-09-04T00:59:15.767Z,23.00
2018-09-04T01:01:43.868Z,23.10
2018-09-04T01:04:11.971Z,23.10
2018-09-04T01:06:40.096Z,23.10
2018-09-04T01:09:08.223Z,23.20
2018-09-04T01:11:43.027Z,23.20
2018-09-04T01:14:11.145Z,23.10
2018-09-04T01:16:39.348Z,23.10
2018-09-04T01:19:07.441Z,23.10
2018-09-04T01:21:35.535Z,23.00
2018-09-04T01:24:03.631Z,23.10
2018-09-04T01:26:31.749Z,23.10
2018-09-04T01:29:00.035Z,23.10
2018-09-04T01:31:28.152Z,23.20
2018-09-04T01:33:56.236Z,23.20
2018-09-04T01:36:24.337Z,23.20
2018-09-04T01:38:52.440Z,23.20
2018-09-04T01:41:20.542Z,23.20
2018-09-04T01:43:48.659Z,23.20
2018-09-04T01:46:16.771Z,23.30
2018-09-04T01:48:44.877Z,23.20
2018-09-04T01:51:12.959Z,23.20
2018-09-04T01:53:41.056Z,23.20
2018-09-04T01:56:09.135Z,23.20
2018-09-04T01:58:37.212Z,23.20
2018-09-04T02:01:05.386Z,23.20
2018-09-04T02:03:33.469Z,23.20
2018-09-04T02:06:01.609Z,23.10
2018-09-04T02:08:29.699Z,23.10
2018-09-04T02:10:57.814Z,23.10
2018-09-04T02:13:25.887Z,23.00
2018-09-04T02:15:53.959Z,23.00
2018-09-04T02:18:22.049Z,23.00
2018-09-04T02:20:50.132Z,23.00
2018-09-04T02:23:18.256Z,23.00
2018-09-04T02:25:46.331Z,23.00
2018-09-04T02:28:14.440Z,23.00
2018-09-04T02:30:42.555Z,23.00
2018-09-04T02:33:10.784Z,23.10
2018-09-04T02:35:38.815Z,23.10
2018-09-04T02:38:07.611Z,23.10
2018-09-04T02:40:35.795Z,23.10
2018-09-04T02:43:03.956Z,23.10
2018-09-04T02:45:32.104Z,23.10
2018-09-04T02:48:00.229Z,23.10
2018-09-04T02:50:28.334Z,23.10
2018-09-04T02:52:56.434Z,23.10
2018-09-04T02:55:24.503Z,23.00
2018-09-04T02:57:52.608Z,23.00
2018-09-04T03:00:20.687Z,23.00
2018-09-04T03:02:48.760Z,23.00
2018-09-04T03:05:16.840Z,23.00
2018-09-04T03:07:44.964Z,22.90
2018-09-04T03:10:13.043Z,22.80
2018-09-04T03:12:41.131Z,22.80
2018-09-04T03:15:09.238Z,22.70
2018-09-04T03:17:37.328Z,22.70
2018-09-04T03:20:05.423Z,22.70
2018-09-04T03:22:33.523Z,22.70
2018-09-04T03:25:01.615Z,22.60
2018-09-04T03:27:29.753Z,22.60
2018-09-04T03:29:57.924Z,22.50
2018-09-04T03:32:26.069Z,22.50
2018-09-04T03:34:54.188Z,22.40
2018-09-04T03:37:22.307Z,22.40
2018-09-04T03:39:50.425Z,22.30
2018-09-04T03:42:18.555Z,22.20
2018-09-04T03:44:46.673Z,22.20
2018-09-04T03:47:14.813Z,22.20
2018-09-04T03:49:42.895Z,22.20
2018-09-04T03:52:11.069Z,22.10
2018-09-04T03:54:39.123Z,22.10
2018-09-04T03:57:07.339Z,22.10
2018-09-04T03:59:35.473Z,22.10
2018-09-04T04:02:03.571Z,22.10
2018-09-04T04:04:31.705Z,22.00
2018-09-04T04:06:59.811Z,22.00
2018-09-04T04:09:27.915Z,21.90
2018-09-04T04:11:56.040Z,22.00
2018-09-04T04:14:24.201Z,21.90
2018-09-04T04:16:52.323Z,21.90
2018-09-04T04:19:20.458Z,21.80
2018-09-04T04:21:48.550Z,21.80
2018-09-04T04:24:16.666Z,21.80
2018-09-04T04:26:44.827Z,21.80
2018-09-04T04:29:12.923Z,21.80
2018-09-04T04:31:41.291Z,21.70
2018-09-04T04:34:09.363Z,21.70
2018-09-04T04:36:37.456Z,21.70
2018-09-04T04:39:07.545Z,21.70
2018-09-04T04:41:36.617Z,21.70
2018-09-04T04:44:04.716Z,21.70
2018-09-04T04:46:32.808Z,21.70
2018-09-04T04:49:00.887Z,21.70
2018-09-04T04:51:28.988Z,21.70
2018-09-04T04:53:57.153Z,21.70
2018-09-04T04:56:25.347Z,21.70
2018-09-04T04:58:53.534Z,21.70
2018-09-04T05:01:21.630Z,21.70
2018-09-04T05:03:49.738Z,21.70
2018-09-04T05:06:17.867Z,21.70
2018-09-04T05:08:46.840Z,21.70
2018-09-04T05:11:15.108Z,21.60
2018-09-04T05:13:43.555Z,21.30
2018-09-04T05:16:11.695Z,21.00
2018-09-04T05:18:40.193Z,21.00
2018-09-04T05:21:08.290Z,21.00
2018-09-04T05:23:36.504Z,21.20
2018-09-04T05:26:04.639Z,21.30
2018-09-04T05:28:32.749Z,21.30
2018-09-04T05:31:00.863Z,21.00
2018-09-04T05:33:32.201Z,21.00
2018-09-04T05:36:00.615Z,21.30
2018-09-04T05:38:29.016Z,21.30
2018-09-04T05:40:58.392Z,21.20
2018-09-04T05:43:29.927Z,21.30
2018-09-04T05:46:08.579Z,21.40
2018-09-04T05:48:36.887Z,21.60
2018-09-04T05:51:30.301Z,21.70
2018-09-04T05:56:46.980Z,21.70
2018-09-04T05:59:15.105Z,21.80
2018-09-04T06:01:43.260Z,22.10
2018-09-04T06:04:11.426Z,22.30
2018-09-04T06:06:39.597Z,22.50
2018-09-04T06:09:07.731Z,22.80
2018-09-04T06:11:35.890Z,23.00
2018-09-04T06:14:04.039Z,23.30
2018-09-04T06:16:32.200Z,23.40
2018-09-04T06:19:00.322Z,23.60
2018-09-04T06:21:28.503Z,23.70
2018-09-04T06:23:56.655Z,23.80
2018-09-04T06:26:24.827Z,23.80
2018-09-04T06:28:52.961Z,23.80
2018-09-04T06:31:21.113Z,23.90
2018-09-04T06:33:49.228Z,24.00
2018-09-04T06:36:17.428Z,24.00
2018-09-04T06:38:45.676Z,24.10
2018-09-04T06:41:13.819Z,24.30
2018-09-04T06:43:41.959Z,24.40
2018-09-04T06:46:11.135Z,24.60
2018-09-04T06:48:39.272Z,24.40
2018-09-04T06:51:07.403Z,24.50
2018-09-04T06:53:35.859Z,24.50
2018-09-04T06:56:03.987Z,24.50
2018-09-04T06:58:32.132Z,24.50
2018-09-04T07:01:00.964Z,24.50
2018-09-04T07:03:29.176Z,24.50
2018-09-04T07:05:57.312Z,24.80
2018-09-04T07:08:25.395Z,25.00
2018-09-04T07:10:53.511Z,25.10
2018-09-04T07:13:21.627Z,25.00
2018-09-04T07:15:49.748Z,24.90
2018-09-04T07:18:17.880Z,25.10
2018-09-04T07:20:45.989Z,25.50
2018-09-04T07:23:14.076Z,25.70
2018-09-04T07:25:42.184Z,25.90
2018-09-04T07:28:10.397Z,26.00
2018-09-04T07:30:38.491Z,26.10
2018-09-04T07:33:06.596Z,26.20
2018-09-04T07:35:34.721Z,26.20
2018-09-04T07:38:02.835Z,26.10
2018-09-04T07:40:30.993Z,26.00
2018-09-04T07:42:59.522Z,26.00
2018-09-04T07:45:27.584Z,26.20
2018-09-04T07:47:55.692Z,26.30
2018-09-04T07:50:23.764Z,26.50
2018-09-04T07:52:51.906Z,26.40
2018-09-04T07:55:19.995Z,26.50
2018-09-04T07:57:48.092Z,26.70
2018-09-04T08:00:16.220Z,26.90
2018-09-04T08:02:44.323Z,27.10
2018-09-04T08:05:12.434Z,27.30
2018-09-04T08:07:40.523Z,27.50
2018-09-04T08:10:08.685Z,27.70
2018-09-04T08:12:36.743Z,27.80
2018-09-04T08:15:05.279Z,27.90
2018-09-04T08:17:34.888Z,28.10
2018-09-04T08:20:03.142Z,28.10
2018-09-04T08:22:31.232Z,28.10
2018-09-04T08:24:59.685Z,28.10
2018-09-04T08:27:27.837Z,28.00
2018-09-04T08:29:55.991Z,28.00
2018-09-04T08:32:24.166Z,27.90
2018-09-04T08:34:53.398Z,27.90
2018-09-04T08:37:21.479Z,27.70
2018-09-04T08:39:49.644Z,27.70
2018-09-04T08:42:17.756Z,27.80
2018-09-04T08:44:45.916Z,27.90
2018-09-04T08:47:14.076Z,28.10
2018-09-04T08:49:42.135Z,28.30
2018-09-04T08:52:10.258Z,28.40
2018-09-04T08:54:38.359Z,28.50
2018-09-04T08:57:06.488Z,28.70
2018-09-04T08:59:35.400Z,28.90
2018-09-04T09:02:03.465Z,29.10
2018-09-04T09:04:31.601Z,29.40
2018-09-04T09:06:59.704Z,29.90
2018-09-04T09:09:27.810Z,30.60
2018-09-04T09:11:55.899Z,31.50
2018-09-04T09:14:24.082Z,32.30
2018-09-04T09:16:52.373Z,32.90
2018-09-04T09:19:20.463Z,33.30
2018-09-04T09:21:48.878Z,34.10
2018-09-04T09:24:18.064Z,34.70
2018-09-04T09:26:46.364Z,35.10
2018-09-04T09:29:14.453Z,35.00
2018-09-04T09:31:42.551Z,34.80
2018-09-04T09:34:10.650Z,34.20
2018-09-04T09:36:38.892Z,33.90
2018-09-04T09:39:08.634Z,33.90
2018-09-04T09:41:36.815Z,34.10
2018-09-04T09:44:04.917Z,34.00
2018-09-04T09:46:33.016Z,34.70
2018-09-04T09:49:01.135Z,35.60
2018-09-04T09:51:29.263Z,36.50
2018-09-04T09:53:57.352Z,37.60
2018-09-04T09:56:25.557Z,38.50
2018-09-04T09:58:53.487Z,39.00
2018-09-04T10:01:25.815Z,39.30
2018-09-04T10:03:58.033Z,39.90
2018-09-04T10:06:26.036Z,40.40
2018-09-04T10:08:54.737Z,40.30
2018-09-04T10:11:22.816Z,40.30
2018-09-04T10:13:50.982Z,40.60
2018-09-04T10:16:19.312Z,40.20
2018-09-04T10:18:47.492Z,39.80
2018-09-04T10:21:15.820Z,38.70
2018-09-04T10:23:43.847Z,38.20
2018-09-04T10:26:11.932Z,37.40
2018-09-04T10:28:39.999Z,36.60
2018-09-04T10:31:08.258Z,36.20
2018-09-04T10:33:36.330Z,35.90
2018-09-04T10:36:04.493Z,35.60
2018-09-04T10:38:32.541Z,34.70
2018-09-04T10:41:09.535Z,34.90
2018-09-04T10:43:53.508Z,35.00
2018-09-04T10:46:26.835Z,35.10
2018-09-04T10:51:40.546Z,34.80
2018-09-04T10:54:08.637Z,34.70
2018-09-04T10:56:36.836Z,34.70
2018-09-04T10:59:04.943Z,34.70
2018-09-04T11:01:33.181Z,34.60
2018-09-04T11:04:01.450Z,34.60
2018-09-04T11:06:29.716Z,34.50
2018-09-04T11:08:57.909Z,34.40
2018-09-04T11:11:25.991Z,34.50
2018-09-04T11:13:54.136Z,34.70
2018-09-04T11:16:22.268Z,35.20
2018-09-04T11:18:50.387Z,36.10
2018-09-04T11:21:18.501Z,37.80
2018-09-04T11:23:46.680Z,39.30
2018-09-04T11:26:14.705Z,40.20
2018-09-04T11:28:46.024Z,40.20
2018-09-04T11:31:14.135Z,39.70
2018-09-04T11:33:42.255Z,39.50
2018-09-04T11:36:10.457Z,40.10
2018-09-04T11:38:38.603Z,40.90
2018-09-04T11:41:06.725Z,41.70
2018-09-04T11:43:36.212Z,42.50
2018-09-04T11:46:04.884Z,43.20
2018-09-04T11:48:39.693Z,43.40
2018-09-04T11:51:10.696Z,43.40
2018-09-04T11:53:39.023Z,43.40
2018-09-04T11:56:07.593Z,43.80
2018-09-04T12:01:08.391Z,44.10
2018-09-04T12:03:36.563Z,43.90
2018-09-04T12:06:04.680Z,44.00
2018-09-04T12:08:33.022Z,44.50
2018-09-04T12:11:01.157Z,44.50
2018-09-04T12:16:00.615Z,44.70
2018-09-04T12:18:29.135Z,44.60
2018-09-04T12:20:59.717Z,43.80
2018-09-04T12:23:27.719Z,45.10
2018-09-04T12:25:57.908Z,45.20
2018-09-04T12:28:26.100Z,44.30
2018-09-04T12:30:54.974Z,44.50
2018-09-04T12:33:23.118Z,44.20
2018-09-04T12:35:51.279Z,44.60
2018-09-04T12:38:20.678Z,44.80
2018-09-04T12:40:49.318Z,44.70
2018-09-04T12:43:17.435Z,44.80
2018-09-04T12:45:50.072Z,44.60
2018-09-04T12:48:23.433Z,43.90
2018-09-04T12:50:52.254Z,44.30
2018-09-04T12:53:20.847Z,44.50
2018-09-04T12:55:48.992Z,44.90
2018-09-04T12:58:17.120Z,45.00
2018-09-04T13:00:46.184Z,44.30
2018-09-04T13:03:15.324Z,44.20
2018-09-04T13:05:43.431Z,44.20
2018-09-04T13:08:11.947Z,44.10
2018-09-04T13:10:40.060Z,44.20
2018-09-04T13:13:08.254Z,43.60
2018-09-04T13:15:36.371Z,43.70
2018-09-04T13:18:04.584Z,44.30
2018-09-04T13:20:32.981Z,44.10
2018-09-04T13:23:01.296Z,44.20
2018-09-04T13:25:29.429Z,44.10
2018-09-04T13:27:57.611Z,43.60
2018-09-04T13:30:25.945Z,43.40
2018-09-04T13:32:55.407Z,43.50
2018-09-04T13:35:23.527Z,43.80
2018-09-04T13:37:51.630Z,44.00
2018-09-04T13:40:19.740Z,44.10
2018-09-04T13:42:47.887Z,43.90
2018-09-04T13:45:16.025Z,43.50
2018-09-04T13:47:44.151Z,43.70
2018-09-04T13:50:12.548Z,44.10
2018-09-04T13:52:40.687Z,44.40
2018-09-04T13:55:08.900Z,44.30
2018-09-04T13:57:37.024Z,43.80
2018-09-04T14:00:05.159Z,42.90
2018-09-04T14:02:33.829Z,42.50
2018-09-04T14:05:01.950Z,42.40
2018-09-04T14:07:30.061Z,42.60
2018-09-04T14:09:59.044Z,42.80
2018-09-04T14:12:27.169Z,42.50
2018-09-04T14:14:55.438Z,42.30
2018-09-04T14:17:23.530Z,42.70
2018-09-04T14:19:51.736Z,42.40
2018-09-04T14:22:19.909Z,42.60
2018-09-04T14:24:48.067Z,42.10
2018-09-04T14:27:16.179Z,41.70
2018-09-04T14:32:12.427Z,40.00
2018-09-04T14:34:41.114Z,39.90
2018-09-04T14:37:09.397Z,40.40
2018-09-04T14:39:37.635Z,40.80
2018-09-04T14:42:05.909Z,41.10
2018-09-04T14:44:34.029Z,40.60
2018-09-04T14:47:02.136Z,40.10
2018-09-04T14:49:30.271Z,39.40
2018-09-04T14:51:58.448Z,39.00
2018-09-04T14:54:26.676Z,38.60
2018-09-04T14:56:54.874Z,38.30
2018-09-04T14:59:22.981Z,38.20
2018-09-04T15:01:51.128Z,38.10
2018-09-04T15:04:19.511Z,38.10
2018-09-04T15:06:47.654Z,38.00
2018-09-04T15:09:15.774Z,37.70
2018-09-04T15:11:43.956Z,37.70
2018-09-04T15:14:12.139Z,37.70
2018-09-04T15:16:40.360Z,37.70
2018-09-04T15:19:08.483Z,37.90
2018-09-04T15:21:36.727Z,38.30
2018-09-04T15:24:04.839Z,38.70
2018-09-04T15:26:32.968Z,38.50
2018-09-04T15:29:01.092Z,38.30
2018-09-04T15:31:29.268Z,38.20
2018-09-04T15:33:57.368Z,38.30
2018-09-04T15:36:25.516Z,38.20
2018-09-04T15:38:53.668Z,38.30
2018-09-04T15:41:22.124Z,38.20
2018-09-04T15:43:50.252Z,37.60
2018-09-04T15:46:18.384Z,37.40
2018-09-04T15:48:50.764Z,37.20
2018-09-04T15:51:18.928Z,37.00
2018-09-04T15:53:47.097Z,37.00
2018-09-04T15:56:15.250Z,36.90
2018-09-04T15:58:43.465Z,36.70
2018-09-04T16:01:12.045Z,36.40
2018-09-04T16:03:41.141Z,36.10
2018-09-04T16:06:10.394Z,35.70
2018-09-04T16:08:39.287Z,35.10
2018-09-04T16:11:10.695Z,34.70
2018-09-04T16:13:38.828Z,34.30
2018-09-04T16:16:08.004Z,34.00
2018-09-04T16:18:36.168Z,33.60
2018-09-04T16:21:04.322Z,33.30
2018-09-04T16:23:32.495Z,33.10
2018-09-04T16:26:00.913Z,32.90
2018-09-04T16:28:29.043Z,32.80
2018-09-04T16:30:57.178Z,32.60
2018-09-04T16:33:26.588Z,32.40
2018-09-04T16:35:56.281Z,32.40
2018-09-04T16:38:24.477Z,32.20
2018-09-04T16:40:54.763Z,32.10
2018-09-04T16:43:22.859Z,32.10
2018-09-04T16:45:51.071Z,31.90
2018-09-04T16:48:20.024Z,31.80
2018-09-04T16:50:49.156Z,31.70
2018-09-04T16:53:18.168Z,31.70
2018-09-04T16:55:47.368Z,31.40
2018-09-04T16:58:15.898Z,31.40
2018-09-04T17:00:44.013Z,31.40
2018-09-04T17:03:13.379Z,31.40
2018-09-04T17:05:42.817Z,31.40
2018-09-04T17:08:11.224Z,31.10
2018-09-04T17:10:39.346Z,30.80
2018-09-04T17:13:07.464Z,30.80
2018-09-04T17:15:35.651Z,31.00
2018-09-04T17:18:03.788Z,31.10
2018-09-04T17:20:31.923Z,30.00
2018-09-04T17:23:00.946Z,29.90
2018-09-04T17:25:29.045Z,30.00
2018-09-04T17:27:57.312Z,30.10
2018-09-04T17:30:25.416Z,30.40
2018-09-04T17:32:53.975Z,30.50
2018-09-04T17:35:22.659Z,30.60
2018-09-04T17:37:50.832Z,30.80
2018-09-04T17:40:18.979Z,30.80
2018-09-04T17:42:47.399Z,30.70
2018-09-04T17:45:15.535Z,30.70
2018-09-04T17:47:43.851Z,30.60
2018-09-04T17:50:11.947Z,30.50
2018-09-04T17:52:40.097Z,30.40
2018-09-04T17:55:08.218Z,30.40
2018-09-04T17:57:36.841Z,30.00
2018-09-04T18:00:05.327Z,30.00
2018-09-04T18:02:33.475Z,29.70
2018-09-04T18:05:01.579Z,29.80
2018-09-04T18:07:29.663Z,29.70
2018-09-04T18:09:57.837Z,29.70
2018-09-04T18:12:25.977Z,29.60
2018-09-04T18:14:54.395Z,29.40
2018-09-04T18:17:22.563Z,29.30
2018-09-04T18:19:50.810Z,29.30
2018-09-04T18:22:18.931Z,29.40
2018-09-04T18:24:47.157Z,29.40
2018-09-04T18:27:15.243Z,29.30
2018-09-04T18:29:43.352Z,29.50
2018-09-04T18:32:11.552Z,29.60
2018-09-04T18:34:39.792Z,29.70
2018-09-04T18:37:07.919Z,29.60
2018-09-04T18:39:36.048Z,29.60
2018-09-04T18:42:04.152Z,29.60
2018-09-04T18:44:32.264Z,29.60
2018-09-04T18:47:01.367Z,29.60
2018-09-04T18:49:29.513Z,29.60
2018-09-04T18:51:57.628Z,29.60
2018-09-04T18:54:25.828Z,29.50
2018-09-04T18:56:53.958Z,29.40
2018-09-04T18:59:22.179Z,29.40
2018-09-04T19:01:50.326Z,29.30
2018-09-04T19:04:18.446Z,29.30
2018-09-04T19:06:46.563Z,29.30
2018-09-04T19:09:14.682Z,29.30
2018-09-04T19:11:42.772Z,29.20
2018-09-04T19:14:10.900Z,29.10
2018-09-04T19:16:39.077Z,29.00
2018-09-04T19:19:07.209Z,29.00
2018-09-04T19:21:35.320Z,28.90
2018-09-04T19:24:03.486Z,28.80
2018-09-04T19:26:31.592Z,28.80
2018-09-04T19:28:59.704Z,28.90
2018-09-04T19:31:27.793Z,28.80
2018-09-04T19:33:55.922Z,28.80
2018-09-04T19:36:24.017Z,28.80
2018-09-04T19:38:52.209Z,28.70
2018-09-04T19:41:20.301Z,28.70
2018-09-04T19:43:48.400Z,28.60
2018-09-04T19:46:16.589Z,28.60
2018-09-04T19:48:44.679Z,28.50
2018-09-04T19:51:12.777Z,28.50
2018-09-04T19:53:40.868Z,28.40
2018-09-04T19:56:08.980Z,28.30
2018-09-04T19:58:37.096Z,28.20
2018-09-04T20:01:05.164Z,28.10
2018-09-04T20:03:33.280Z,28.10
2018-09-04T20:06:01.367Z,28.00
2018-09-04T20:08:29.547Z,28.10
2018-09-04T20:10:57.632Z,28.10
2018-09-04T20:13:25.840Z,28.10
2018-09-04T20:15:53.820Z,27.90
2018-09-04T20:18:21.918Z,27.80
2018-09-04T20:20:49.983Z,27.80
2018-09-04T20:23:18.084Z,27.90
2018-09-04T20:25:46.172Z,27.80
2018-09-04T20:28:14.256Z,27.80
2018-09-04T20:30:42.327Z,27.70
2018-09-04T20:33:10.403Z,27.70
2018-09-04T20:35:38.484Z,27.70
2018-09-04T20:38:06.635Z,27.70
2018-09-04T20:40:34.735Z,27.60
2018-09-04T20:43:02.803Z,27.60
2018-09-04T20:45:30.896Z,27.60
2018-09-04T20:47:59.023Z,25.50
2018-09-04T20:50:27.330Z,27.50
2018-09-04T20:52:55.604Z,27.50
2018-09-04T20:55:23.700Z,27.50
2018-09-04T20:58:03.248Z,27.60
2018-09-04T21:00:42.812Z,27.50
2018-09-04T21:03:22.787Z,27.30
2018-09-04T21:06:02.464Z,27.20
2018-09-04T21:08:47.012Z,27.10
2018-09-04T21:11:15.166Z,27.10
2018-09-04T21:13:43.250Z,27.10
2018-09-04T21:16:12.265Z,27.20
2018-09-04T21:18:40.379Z,27.30
2018-09-04T21:21:08.499Z,27.40
2018-09-04T21:23:36.587Z,27.40
2018-09-04T21:26:04.703Z,27.40
2018-09-04T21:28:32.839Z,27.30
2018-09-04T21:31:01.510Z,27.30
2018-09-04T21:33:29.660Z,27.20
2018-09-04T21:35:57.801Z,27.20
2018-09-04T21:38:25.876Z,27.20
2018-09-04T21:40:53.971Z,27.20
2018-09-04T21:43:22.068Z,27.20
2018-09-04T21:45:50.148Z,27.20
2018-09-04T21:48:18.246Z,27.20
2018-09-04T21:50:46.377Z,27.10
2018-09-04T21:53:14.532Z,27.00
2018-09-04T21:55:42.656Z,27.00
2018-09-04T21:58:10.755Z,27.00
2018-09-04T22:00:38.916Z,27.00
2018-09-04T22:03:09.203Z,27.00
2018-09-04T22:05:38.564Z,27.00
2018-09-04T22:08:06.723Z,27.10
2018-09-04T22:10:34.903Z,27.10
2018-09-04T22:13:03.042Z,27.10
2018-09-04T22:15:31.156Z,27.10
2018-09-04T22:17:59.300Z,27.10
2018-09-04T22:20:27.430Z,27.10
2018-09-04T22:22:55.527Z,27.10
2018-09-04T22:25:23.644Z,27.10
2018-09-04T22:27:51.771Z,27.10
2018-09-04T22:30:19.900Z,27.00
2018-09-04T22:32:48.008Z,27.00
2018-09-04T22:35:16.158Z,26.90
2018-09-04T22:37:44.265Z,26.90
2018-09-04T22:40:12.387Z,26.90
2018-09-04T22:42:40.712Z,26.90
2018-09-04T22:45:09.041Z,26.90
2018-09-04T22:47:37.371Z,26.90
2018-09-04T22:50:11.032Z,26.90
2018-09-04T22:52:39.150Z,26.90
2018-09-04T22:55:07.956Z,26.70
2018-09-04T22:57:36.062Z,26.70
2018-09-04T23:00:04.148Z,26.70
2018-09-04T23:02:32.260Z,26.70
2018-09-04T23:05:00.383Z,26.70
2018-09-04T23:07:28.447Z,26.70
2018-09-04T23:09:56.520Z,26.70
2018-09-04T23:12:24.640Z,26.70
2018-09-04T23:14:52.712Z,26.60
2018-09-04T23:17:20.863Z,26.50
2018-09-04T23:19:48.951Z,26.50
2018-09-04T23:22:17.252Z,26.40
2018-09-04T23:24:45.341Z,26.30
2018-09-04T23:27:13.473Z,26.30
2018-09-04T23:29:41.559Z,26.20
2018-09-04T23:32:09.673Z,26.20
2018-09-04T23:34:38.118Z,26.20
2018-09-04T23:37:06.218Z,26.10
2018-09-04T23:39:34.303Z,26.10
2018-09-04T23:42:02.405Z,26.00
2018-09-04T23:44:30.487Z,25.90
2018-09-04T23:46:58.611Z,26.00
2018-09-04T23:49:26.683Z,25.90
2018-09-04T23:51:54.768Z,25.80
2018-09-04T23:54:22.889Z,25.80
2018-09-04T23:56:50.994Z,25.80
2018-09-04T23:59:19.096Z,25.70
